Ragersville, Ohio
Current Conditions -  °F | °C
As of 10:53 PM on Wednesday 26 Nov 2014 (Local Time) from KPHD Reporting Station
Overcast Overcast  
Wind Chill: 31°   Ceiling: 3900
Heat Index: 35°   Visibility: 10mi
Dew Point: 27°   Wind: 5mph
Humidity: 72%   Direction: 310°NW
Pressure: 30.03"   Gusts: NA
Location:  40.5178°N, 81.673°W
Report Text: KPHD 270353Z AUTO 31004KT 10SM OVC039 02/M03 A3003 RMK AO2 SLP177 T00171028
Loading
Personal Weather Stations






























Interactive Weather Map New forecast layout! Learn more

10-Day Weather Forecast

Advertisements
Track Severe Weather on mobile